Terminal Aerodrome Forecast
Issued by NWS

Home | Current Version | Previous Version | Text Only | Print | Product List | Glossary On
Versions: 1 2 3 4 5 6 7 8 9 10 11 12 13 14 15 16 17 18 19 20 21 22
988
FTUS43 KMQT 260520
TAFIWD
TAF
KIWD 260520Z 2606/2706 32010KT 4SM BR VCSH OVC002
      TEMPO 2609/2613 OVC004
     FM261300 33006KT P6SM VCSH BKN030
     FM261400 32006KT P6SM VCSH BKN050
     FM261500 32006KT P6SM BKN080
     FM261700 32006KT P6SM SCT090=

USA.gov is the U.S. government's official web portal to all federal, state and local government web resources and services.